sensor_id;sensor_type;location;lat;lon;timestamp;pressure;altitude;pressure_sealevel;temperature;humidity
4398;BME280;2213;49.720;7.296;2023-05-16T00:00:45;97970.69;;;12.48;100.00
4398;BME280;2213;49.720;7.296;2023-05-16T00:03:15;97971.09;;;12.45;100.00
4398;BME280;2213;49.720;7.296;2023-05-16T00:05:44;97971.09;;;12.45;100.00
4398;BME280;2213;49.720;7.296;2023-05-16T00:08:12;97973.72;;;12.45;100.00
4398;BME280;2213;49.720;7.296;2023-05-16T00:10:41;97977.75;;;12.48;100.00
4398;BME280;2213;49.720;7.296;2023-05-16T00:13:09;97973.91;;;12.50;100.00
4398;BME280;2213;49.720;7.296;2023-05-16T00:15:39;97973.50;;;12.53;100.00
4398;BME280;2213;49.720;7.296;2023-05-16T00:18:10;97974.13;;;12.55;100.00
4398;BME280;2213;49.720;7.296;2023-05-16T00:20:41;97978.16;;;12.58;100.00
4398;BME280;2213;49.720;7.296;2023-05-16T00:23:10;97984.81;;;12.60;100.00
4398;BME280;2213;49.720;7.296;2023-05-16T00:25:38;97978.38;;;12.63;100.00
4398;BME280;2213;49.720;7.296;2023-05-16T00:28:07;97984.41;;;12.63;100.00
4398;BME280;2213;49.720;7.296;2023-05-16T00:30:36;97978.78;;;12.67;100.00
4398;BME280;2213;49.720;7.296;2023-05-16T00:33:05;97976.75;;;12.69;100.00
4398;BME280;2213;49.720;7.296;2023-05-16T00:35:34;97972.72;;;12.73;100.00
4398;BME280;2213;49.720;7.296;2023-05-16T00:38:03;97974.13;;;12.75;100.00
4398;BME280;2213;49.720;7.296;2023-05-16T00:40:31;97968.28;;;12.73;100.00
4398;BME280;2213;49.720;7.296;2023-05-16T00:43:00;97980.78;;;12.71;100.00
4398;BME280;2213;49.720;7.296;2023-05-16T00:45:29;97981.59;;;12.72;100.00
4398;BME280;2213;49.720;7.296;2023-05-16T00:47:59;97979.97;;;12.71;100.00
4398;BME280;2213;49.720;7.296;2023-05-16T00:50:29;97972.09;;;12.71;100.00
4398;BME280;2213;49.720;7.296;2023-05-16T00:52:58;97972.91;;;12.71;100.00
4398;BME280;2213;49.720;7.296;2023-05-16T00:55:26;97984.44;;;12.70;100.00
4398;BME280;2213;49.720;7.296;2023-05-16T00:57:56;97990.28;;;12.72;100.00
4398;BME280;2213;49.720;7.296;2023-05-16T01:00:27;97987.47;;;12.74;100.00
4398;BME280;2213;49.720;7.296;2023-05-16T01:02:56;97993.91;;;12.78;100.00
4398;BME280;2213;49.720;7.296;2023-05-16T01:05:24;97994.53;;;12.80;100.00
4398;BME280;2213;49.720;7.296;2023-05-16T01:07:55;97984.03;;;12.80;100.00
4398;BME280;2213;49.720;7.296;2023-05-16T01:10:25;97983.00;;;12.81;100.00
4398;BME280;2213;49.720;7.296;2023-05-16T01:13:08;97982.00;;;12.82;100.00
4398;BME280;2213;49.720;7.296;2023-05-16T01:15:49;97989.88;;;12.82;100.00
4398;BME280;2213;49.720;7.296;2023-05-16T01:18:29;97983.63;;;12.83;100.00
4398;BME280;2213;49.720;7.296;2023-05-16T01:21:11;97989.69;;;12.83;100.00
4398;BME280;2213;49.720;7.296;2023-05-16T01:23:51;97973.53;;;12.80;100.00
4398;BME280;2213;49.720;7.296;2023-05-16T01:26:29;97983.63;;;12.70;100.00
4398;BME280;2213;49.720;7.296;2023-05-16T01:28:59;97981.59;;;12.72;100.00
4398;BME280;2213;49.720;7.296;2023-05-16T01:31:30;97984.63;;;12.69;100.00
4398;BME280;2213;49.720;7.296;2023-05-16T01:33:59;97980.59;;;12.66;100.00
4398;BME280;2213;49.720;7.296;2023-05-16T01:36:37;97983.22;;;12.66;100.00
4398;BME280;2213;49.720;7.296;2023-05-16T01:39:19;97993.31;;;12.69;100.00
4398;BME280;2213;49.720;7.296;2023-05-16T01:42:01;97988.06;;;12.63;100.00
4398;BME280;2213;49.720;7.296;2023-05-16T01:44:35;97981.19;;;12.61;100.00
4398;BME280;2213;49.720;7.296;2023-05-16T01:47:10;97990.28;;;12.66;100.00
4398;BME280;2213;49.720;7.296;2023-05-16T01:49:45;97986.84;;;12.65;100.00
4398;BME280;2213;49.720;7.296;2023-05-16T01:52:25;97986.66;;;12.67;100.00
4398;BME280;2213;49.720;7.296;2023-05-16T01:54:58;97977.56;;;12.63;100.00
4398;BME280;2213;49.720;7.296;2023-05-16T01:57:29;97979.56;;;12.60;100.00
4398;BME280;2213;49.720;7.296;2023-05-16T01:59:58;97982.00;;;12.55;100.00
4398;BME280;2213;49.720;7.296;2023-05-16T02:02:27;97993.09;;;12.57;100.00
4398;BME280;2213;49.720;7.296;2023-05-16T02:04:55;97993.91;;;12.58;100.00
4398;BME280;2213;49.720;7.296;2023-05-16T02:07:25;97997.34;;;12.58;100.00
4398;BME280;2213;49.720;7.296;2023-05-16T02:09:54;97990.69;;;12.56;100.00
4398;BME280;2213;49.720;7.296;2023-05-16T02:12:23;97993.31;;;12.56;100.00
4398;BME280;2213;49.720;7.296;2023-05-16T02:14:53;98000.16;;;12.57;100.00
4398;BME280;2213;49.720;7.296;2023-05-16T02:17:23;97996.53;;;12.58;100.00
4398;BME280;2213;49.720;7.296;2023-05-16T02:19:53;97993.09;;;12.57;100.00
4398;BME280;2213;49.720;7.296;2023-05-16T02:22:23;97992.09;;;12.58;100.00
4398;BME280;2213;49.720;7.296;2023-05-16T02:24:52;97991.47;;;12.56;100.00
4398;BME280;2213;49.720;7.296;2023-05-16T02:27:20;97990.69;;;12.49;100.00
4398;BME280;2213;49.720;7.296;2023-05-16T02:29:49;97988.84;;;12.50;100.00
4398;BME280;2213;49.720;7.296;2023-05-16T02:32:20;97996.13;;;12.54;100.00
4398;BME280;2213;49.720;7.296;2023-05-16T02:34:49;97986.03;;;12.51;100.00
4398;BME280;2213;49.720;7.296;2023-05-16T02:37:19;97995.53;;;12.52;100.00
4398;BME280;2213;49.720;7.296;2023-05-16T02:39:47;97998.16;;;12.52;100.00
4398;BME280;2213;49.720;7.296;2023-05-16T02:42:16;98001.38;;;12.54;100.00
4398;BME280;2213;49.720;7.296;2023-05-16T02:44:44;98006.63;;;12.54;100.00
4398;BME280;2213;49.720;7.296;2023-05-16T02:47:13;97999.75;;;12.53;100.00
4398;BME280;2213;49.720;7.296;2023-05-16T02:49:44;97998.75;;;12.54;100.00
4398;BME280;2213;49.720;7.296;2023-05-16T02:52:13;97999.34;;;12.56;100.00
4398;BME280;2213;49.720;7.296;2023-05-16T02:54:42;98001.97;;;12.56;100.00
4398;BME280;2213;49.720;7.296;2023-05-16T02:57:18;98000.16;;;12.57;100.00
4398;BME280;2213;49.720;7.296;2023-05-16T02:59:46;97998.97;;;12.59;100.00
4398;BME280;2213;49.720;7.296;2023-05-16T03:02:14;98000.16;;;12.57;100.00
4398;BME280;2213;49.720;7.296;2023-05-16T03:04:45;98001.38;;;12.54;100.00
4398;BME280;2213;49.720;7.296;2023-05-16T03:07:14;98005.00;;;12.53;100.00
4398;BME280;2213;49.720;7.296;2023-05-16T03:09:42;98001.78;;;12.51;100.00
4398;BME280;2213;49.720;7.296;2023-05-16T03:12:11;98005.41;;;12.50;100.00
4398;BME280;2213;49.720;7.296;2023-05-16T03:14:41;98003.00;;;12.49;100.00
4398;BME280;2213;49.720;7.296;2023-05-16T03:17:11;98010.03;;;12.48;100.00
4398;BME280;2213;49.720;7.296;2023-05-16T03:19:39;98002.16;;;12.42;100.00
4398;BME280;2213;49.720;7.296;2023-05-16T03:22:11;98006.59;;;12.41;100.00
4398;BME280;2213;49.720;7.296;2023-05-16T03:24:39;98002.34;;;12.40;100.00
4398;BME280;2213;49.720;7.296;2023-05-16T03:27:08;98007.81;;;12.39;100.00
4398;BME280;2213;49.720;7.296;2023-05-16T03:29:37;98007.41;;;12.35;100.00
4398;BME280;2213;49.720;7.296;2023-05-16T03:32:06;98015.47;;;12.34;100.00
4398;BME280;2213;49.720;7.296;2023-05-16T03:34:36;98015.47;;;12.34;100.00
4398;BME280;2213;49.720;7.296;2023-05-16T03:37:05;98015.66;;;12.32;100.00
4398;BME280;2213;49.720;7.296;2023-05-16T03:39:36;98025.13;;;12.33;100.00
4398;BME280;2213;49.720;7.296;2023-05-16T03:42:05;98021.69;;;12.33;100.00
4398;BME280;2213;49.720;7.296;2023-05-16T03:44:34;98021.50;;;12.34;100.00
4398;BME280;2213;49.720;7.296;2023-05-16T03:47:03;98028.75;;;12.32;100.00
4398;BME280;2213;49.720;7.296;2023-05-16T03:49:34;98023.91;;;12.36;100.00
4398;BME280;2213;49.720;7.296;2023-05-16T03:52:04;98024.31;;;12.33;100.00
4398;BME280;2213;49.720;7.296;2023-05-16T03:54:34;98025.53;;;12.30;100.00
4398;BME280;2213;49.720;7.296;2023-05-16T03:57:04;98033.16;;;12.25;100.00
4398;BME280;2213;49.720;7.296;2023-05-16T03:59:33;98033.97;;;12.26;100.00
4398;BME280;2213;49.720;7.296;2023-05-16T04:02:03;98040.84;;;12.20;100.00
4398;BME280;2213;49.720;7.296;2023-05-16T04:04:31;98041.44;;;12.22;100.00
4398;BME280;2213;49.720;7.296;2023-05-16T04:07:00;98035.19;;;12.23;100.00
4398;BME280;2213;49.720;7.296;2023-05-16T04:09:29;98046.09;;;12.20;100.00
4398;BME280;2213;49.720;7.296;2023-05-16T04:11:58;98056.16;;;12.23;100.00
4398;BME280;2213;49.720;7.296;2023-05-16T04:14:29;98047.50;;;12.23;100.00
4398;BME280;2213;49.720;7.296;2023-05-16T04:16:57;98047.31;;;12.24;100.00
4398;BME280;2213;49.720;7.296;2023-05-16T04:19:26;98050.31;;;12.21;100.00
4398;BME280;2213;49.720;7.296;2023-05-16T04:21:55;98044.88;;;12.23;100.00
4398;BME280;2213;49.720;7.296;2023-05-16T04:24:24;98043.66;;;12.25;100.00
4398;BME280;2213;49.720;7.296;2023-05-16T04:26:55;98048.53;;;12.28;100.00
4398;BME280;2213;49.720;7.296;2023-05-16T04:29:26;98054.56;;;12.29;100.00
4398;BME280;2213;49.720;7.296;2023-05-16T04:31:54;98057.59;;;12.26;100.00
4398;BME280;2213;49.720;7.296;2023-05-16T04:34:23;98051.75;;;12.24;100.00
4398;BME280;2213;49.720;7.296;2023-05-16T04:36:54;98064.44;;;12.20;100.00
4398;BME280;2213;49.720;7.296;2023-05-16T04:39:23;98063.22;;;12.23;100.00
4398;BME280;2213;49.720;7.296;2023-05-16T04:41:52;98064.63;;;12.25;100.00
4398;BME280;2213;49.720;7.296;2023-05-16T04:44:20;98070.91;;;12.24;100.00
4398;BME280;2213;49.720;7.296;2023-05-16T04:46:51;98068.28;;;12.24;100.00
4398;BME280;2213;49.720;7.296;2023-05-16T04:49:21;98066.66;;;12.23;100.00
4398;BME280;2213;49.720;7.296;2023-05-16T04:51:50;98070.66;;;12.19;100.00
4398;BME280;2213;49.720;7.296;2023-05-16T04:54:19;98072.28;;;12.20;100.00
4398;BME280;2213;49.720;7.296;2023-05-16T04:56:49;98074.69;;;12.15;100.00
4398;BME280;2213;49.720;7.296;2023-05-16T04:59:18;98078.94;;;12.16;100.00
4398;BME280;2213;49.720;7.296;2023-05-16T05:01:47;98077.91;;;12.10;100.00
4398;BME280;2213;49.720;7.296;2023-05-16T05:04:17;98074.66;;;12.08;100.00
4398;BME280;2213;49.720;7.296;2023-05-16T05:06:45;98080.72;;;12.09;100.00
4398;BME280;2213;49.720;7.296;2023-05-16T05:09:14;98072.66;;;12.10;100.00
4398;BME280;2213;49.720;7.296;2023-05-16T05:11:44;98076.88;;;12.05;100.00
4398;BME280;2213;49.720;7.296;2023-05-16T05:14:13;98080.72;;;12.09;100.00
4398;BME280;2213;49.720;7.296;2023-05-16T05:16:42;98080.72;;;12.09;100.00
4398;BME280;2213;49.720;7.296;2023-05-16T05:19:11;98092.44;;;12.13;100.00
4398;BME280;2213;49.720;7.296;2023-05-16T05:21:41;98094.06;;;12.14;100.00
4398;BME280;2213;49.720;7.296;2023-05-16T05:24:10;98098.06;;;12.10;100.00
4398;BME280;2213;49.720;7.296;2023-05-16T05:26:38;98107.47;;;11.98;100.00
4398;BME280;2213;49.720;7.296;2023-05-16T05:29:07;98112.94;;;11.96;100.00
4398;BME280;2213;49.720;7.296;2023-05-16T05:31:36;98116.97;;;11.99;100.00
4398;BME280;2213;49.720;7.296;2023-05-16T05:34:05;98118.59;;;12.00;100.00
4398;BME280;2213;49.720;7.296;2023-05-16T05:36:34;98122.59;;;11.96;100.00
4398;BME280;2213;49.720;7.296;2023-05-16T05:39:04;98122.00;;;11.94;100.00
4398;BME280;2213;49.720;7.296;2023-05-16T05:41:33;98120.16;;;11.94;100.00
4398;BME280;2213;49.720;7.296;2023-05-16T05:44:01;98123.38;;;11.90;100.00
4398;BME280;2213;49.720;7.296;2023-05-16T05:46:31;98122.53;;;11.83;100.00
4398;BME280;2213;49.720;7.296;2023-05-16T05:49:00;98128.94;;;11.80;100.00
4398;BME280;2213;49.720;7.296;2023-05-16T05:51:29;98131.19;;;11.83;100.00
4398;BME280;2213;49.720;7.296;2023-05-16T05:53:58;98133.00;;;11.83;100.00
4398;BME280;2213;49.720;7.296;2023-05-16T05:56:28;98136.22;;;11.85;100.00
4398;BME280;2213;49.720;7.296;2023-05-16T05:58:57;98135.84;;;11.88;100.00
4398;BME280;2213;49.720;7.296;2023-05-16T06:01:26;98137.88;;;11.86;100.00
4398;BME280;2213;49.720;7.296;2023-05-16T06:03:56;98144.72;;;11.87;100.00
4398;BME280;2213;49.720;7.296;2023-05-16T06:06:28;98145.50;;;11.87;100.00
4398;BME280;2213;49.720;7.296;2023-05-16T06:08:57;98144.25;;;11.77;100.00
4398;BME280;2213;49.720;7.296;2023-05-16T06:11:28;98155.09;;;11.74;100.00
4398;BME280;2213;49.720;7.296;2023-05-16T06:13:56;98161.16;;;11.74;100.00
4398;BME280;2213;49.720;7.296;2023-05-16T06:16:25;98157.47;;;11.69;100.00
4398;BME280;2213;49.720;7.296;2023-05-16T06:18:54;98165.13;;;11.70;100.00
4398;BME280;2213;49.720;7.296;2023-05-16T06:21:23;98173.19;;;11.69;100.00
4398;BME280;2213;49.720;7.296;2023-05-16T06:23:52;98173.19;;;11.69;100.00
4398;BME280;2213;49.720;7.296;2023-05-16T06:26:21;98181.84;;;11.69;100.00
4398;BME280;2213;49.720;7.296;2023-05-16T06:28:51;98175.81;;;11.69;100.00
4398;BME280;2213;49.720;7.296;2023-05-16T06:31:20;98183.63;;;11.62;100.00
4398;BME280;2213;49.720;7.296;2023-05-16T06:33:49;98182.00;;;11.61;100.00
4398;BME280;2213;49.720;7.296;2023-05-16T06:36:18;98181.13;;;11.54;100.00
4398;BME280;2213;49.720;7.296;2023-05-16T06:38:47;98185.94;;;11.50;100.00
4398;BME280;2213;49.720;7.296;2023-05-16T06:41:16;98196.78;;;11.47;100.00
4398;BME280;2213;49.720;7.296;2023-05-16T06:43:44;98181.31;;;11.52;100.00
4398;BME280;2213;49.720;7.296;2023-05-16T06:46:14;98176.72;;;11.54;100.00
4398;BME280;2213;49.720;7.296;2023-05-16T06:48:43;98192.16;;;11.49;100.00
4398;BME280;2213;49.720;7.296;2023-05-16T06:51:12;98191.50;;;11.41;100.00
4398;BME280;2213;49.720;7.296;2023-05-16T06:53:40;98195.09;;;11.40;100.00
4398;BME280;2213;49.720;7.296;2023-05-16T06:56:10;98186.50;;;11.25;100.00
4398;BME280;2213;49.720;7.296;2023-05-16T06:58:39;98193.19;;;11.27;100.00
4398;BME280;2213;49.720;7.296;2023-05-16T07:01:07;98204.66;;;11.26;100.00
4398;BME280;2213;49.720;7.296;2023-05-16T07:03:38;98200.03;;;11.28;100.00
4398;BME280;2213;49.720;7.296;2023-05-16T07:06:06;98206.50;;;11.32;100.00
4398;BME280;2213;49.720;7.296;2023-05-16T07:08:36;98213.13;;;11.28;100.00
4398;BME280;2213;49.720;7.296;2023-05-16T07:11:05;98209.88;;;11.26;100.00
4398;BME280;2213;49.720;7.296;2023-05-16T07:13:36;98215.88;;;11.20;100.00
4398;BME280;2213;49.720;7.296;2023-05-16T07:16:06;98221.56;;;11.24;100.00
4398;BME280;2213;49.720;7.296;2023-05-16T07:18:36;98219.47;;;11.19;100.00
4398;BME280;2213;49.720;7.296;2023-05-16T07:21:05;98219.91;;;11.23;100.00
4398;BME280;2213;49.720;7.296;2023-05-16T07:23:33;98220.84;;;11.15;100.00
4398;BME280;2213;49.720;7.296;2023-05-16T07:26:02;98215.88;;;11.20;100.00
4398;BME280;2213;49.720;7.296;2023-05-16T07:28:31;98222.09;;;11.19;100.00
4398;BME280;2213;49.720;7.296;2023-05-16T07:31:00;98221.94;;;11.21;100.00
4398;BME280;2213;49.720;7.296;2023-05-16T07:33:28;98229.34;;;11.17;100.00
4398;BME280;2213;49.720;7.296;2023-05-16T07:35:58;98236.56;;;11.15;100.00
4398;BME280;2213;49.720;7.296;2023-05-16T07:38:42;98240.25;;;11.21;100.00
4398;BME280;2213;49.720;7.296;2023-05-16T07:41:11;98246.53;;;11.26;100.00
4398;BME280;2213;49.720;7.296;2023-05-16T07:43:40;98234.00;;;11.22;100.00
4398;BME280;2213;49.720;7.296;2023-05-16T07:46:10;98239.50;;;11.27;100.00
4398;BME280;2213;49.720;7.296;2023-05-16T07:48:39;98246.16;;;11.29;100.00
4398;BME280;2213;49.720;7.296;2023-05-16T07:51:09;98252.66;;;11.33;100.00
4398;BME280;2213;49.720;7.296;2023-05-16T07:53:38;98247.91;;;11.22;100.00
4398;BME280;2213;49.720;7.296;2023-05-16T07:56:07;98250.97;;;11.26;100.00
4398;BME280;2213;49.720;7.296;2023-05-16T07:58:36;98239.69;;;11.25;100.00
4398;BME280;2213;49.720;7.296;2023-05-16T08:01:05;98247.28;;;11.20;100.00
4398;BME280;2213;49.720;7.296;2023-05-16T08:03:34;98257.13;;;11.18;100.00
4398;BME280;2213;49.720;7.296;2023-05-16T08:06:05;98257.75;;;11.20;100.00
4398;BME280;2213;49.720;7.296;2023-05-16T08:08:35;98250.81;;;11.13;100.00
4398;BME280;2213;49.720;7.296;2023-05-16T08:11:04;98245.16;;;11.09;100.00
4398;BME280;2213;49.720;7.296;2023-05-16T08:13:33;98258.84;;;11.11;100.00
4398;BME280;2213;49.720;7.296;2023-05-16T08:16:02;98255.63;;;11.09;100.00
4398;BME280;2213;49.720;7.296;2023-05-16T08:18:31;98269.31;;;11.11;100.00
4398;BME280;2213;49.720;7.296;2023-05-16T08:21:00;98271.69;;;11.06;100.00
4398;BME280;2213;49.720;7.296;2023-05-16T08:23:29;98284.88;;;10.98;100.00
4398;BME280;2213;49.720;7.296;2023-05-16T08:25:59;98278.13;;;10.89;100.00
4398;BME280;2213;49.720;7.296;2023-05-16T08:28:28;98287.59;;;10.90;100.00
4398;BME280;2213;49.720;7.296;2023-05-16T08:30:57;98292.88;;;10.75;100.00
4398;BME280;2213;49.720;7.296;2023-05-16T08:33:26;98285.84;;;10.76;100.00
4398;BME280;2213;49.720;7.296;2023-05-16T08:35:55;98285.38;;;10.72;100.00
4398;BME280;2213;49.720;7.296;2023-05-16T08:38:24;98287.63;;;10.60;100.00
4398;BME280;2213;49.720;7.296;2023-05-16T08:40:52;98296.66;;;10.58;100.00
4398;BME280;2213;49.720;7.296;2023-05-16T08:43:23;98289.97;;;10.55;100.00
4398;BME280;2213;49.720;7.296;2023-05-16T08:45:51;98308.81;;;10.51;100.00
4398;BME280;2213;49.720;7.296;2023-05-16T08:48:23;98302.34;;;10.47;100.00
4398;BME280;2213;49.720;7.296;2023-05-16T08:50:53;98311.59;;;10.49;100.00
4398;BME280;2213;49.720;7.296;2023-05-16T08:53:31;98311.91;;;10.54;100.00
4398;BME280;2213;49.720;7.296;2023-05-16T08:56:01;98301.69;;;10.59;100.00
4398;BME280;2213;49.720;7.296;2023-05-16T08:58:32;98298.53;;;10.64;100.00
4398;BME280;2213;49.720;7.296;2023-05-16T09:01:03;98308.81;;;10.66;100.00
4398;BME280;2213;49.720;7.296;2023-05-16T09:03:36;98301.25;;;10.71;100.00
4398;BME280;2213;49.720;7.296;2023-05-16T09:06:05;98310.00;;;10.78;100.00
4398;BME280;2213;49.720;7.296;2023-05-16T09:08:34;98307.28;;;10.86;100.00
4398;BME280;2213;49.720;7.296;2023-05-16T09:11:03;98310.88;;;10.85;100.00
4398;BME280;2213;49.720;7.296;2023-05-16T09:13:34;98312.31;;;10.87;100.00
4398;BME280;2213;49.720;7.296;2023-05-16T09:16:10;98315.84;;;10.94;100.00
4398;BME280;2213;49.720;7.296;2023-05-16T09:18:42;98319.25;;;10.95;100.00
4398;BME280;2213;49.720;7.296;2023-05-16T09:21:12;98320.97;;;10.88;100.00
4398;BME280;2213;49.720;7.296;2023-05-16T09:23:42;98318.28;;;10.81;100.00
4398;BME280;2213;49.720;7.296;2023-05-16T09:26:12;98320.72;;;10.68;100.00
4398;BME280;2213;49.720;7.296;2023-05-16T09:28:43;98314.22;;;10.79;100.00
4398;BME280;2213;49.720;7.296;2023-05-16T09:31:22;98308.09;;;10.86;100.00
4398;BME280;2213;49.720;7.296;2023-05-16T09:33:53;98314.66;;;10.97;100.00
4398;BME280;2213;49.720;7.296;2023-05-16T09:36:24;98320.97;;;11.02;100.00
4398;BME280;2213;49.720;7.296;2023-05-16T09:38:53;98315.19;;;11.07;100.00
4398;BME280;2213;49.720;7.296;2023-05-16T09:41:23;98320.31;;;11.15;100.00
4398;BME280;2213;49.720;7.296;2023-05-16T09:43:54;98322.00;;;11.23;100.00
4398;BME280;2213;49.720;7.296;2023-05-16T09:46:25;98322.19;;;11.21;100.00
4398;BME280;2213;49.720;7.296;2023-05-16T09:48:55;98320.81;;;11.25;100.00
4398;BME280;2213;49.720;7.296;2023-05-16T09:51:25;98324.78;;;11.36;100.00
4398;BME280;2213;49.720;7.296;2023-05-16T09:53:57;98323.78;;;11.37;100.00
4398;BME280;2213;49.720;7.296;2023-05-16T09:56:28;98329.47;;;11.40;100.00
4398;BME280;2213;49.720;7.296;2023-05-16T09:58:58;98327.81;;;11.39;100.00
4398;BME280;2213;49.720;7.296;2023-05-16T10:01:26;98322.03;;;11.44;100.00
4398;BME280;2213;49.720;7.296;2023-05-16T10:03:56;98328.53;;;11.48;100.00
4398;BME280;2213;49.720;7.296;2023-05-16T10:06:25;98324.19;;;11.55;100.00
4398;BME280;2213;49.720;7.296;2023-05-16T10:08:54;98317.38;;;11.60;100.00
4398;BME280;2213;49.720;7.296;2023-05-16T10:11:23;98311.03;;;11.70;100.00
4398;BME280;2213;49.720;7.296;2023-05-16T10:13:53;98313.53;;;11.78;100.00
4398;BME280;2213;49.720;7.296;2023-05-16T10:16:25;98310.16;;;11.84;100.00
4398;BME280;2213;49.720;7.296;2023-05-16T10:18:54;98318.53;;;11.94;100.00
4398;BME280;2213;49.720;7.296;2023-05-16T10:21:26;98309.72;;;12.01;100.00
4398;BME280;2213;49.720;7.296;2023-05-16T10:24:01;98314.22;;;12.07;100.00
4398;BME280;2213;49.720;7.296;2023-05-16T10:26:32;98324.38;;;12.17;100.00
4398;BME280;2213;49.720;7.296;2023-05-16T10:29:02;98317.38;;;12.24;100.00
4398;BME280;2213;49.720;7.296;2023-05-16T10:31:34;98329.69;;;12.30;100.00
4398;BME280;2213;49.720;7.296;2023-05-16T10:34:04;98313.59;;;12.33;100.00
4398;BME280;2213;49.720;7.296;2023-05-16T10:36:33;98323.66;;;12.30;99.69
4398;BME280;2213;49.720;7.296;2023-05-16T10:39:02;98309.28;;;12.26;96.40
4398;BME280;2213;49.720;7.296;2023-05-16T10:41:33;98308.28;;;12.27;94.84
4398;BME280;2213;49.720;7.296;2023-05-16T10:44:12;98288.94;;;12.28;93.49
4398;BME280;2213;49.720;7.296;2023-05-16T10:46:46;98312.59;;;12.34;93.54
4398;BME280;2213;49.720;7.296;2023-05-16T10:49:23;98299.09;;;12.37;90.91
4398;BME280;2213;49.720;7.296;2023-05-16T10:52:07;98300.72;;;12.38;90.06
4398;BME280;2213;49.720;7.296;2023-05-16T10:54:39;98298.94;;;12.45;89.21
4398;BME280;2213;49.720;7.296;2023-05-16T10:57:14;98291.50;;;12.49;88.25
4398;BME280;2213;49.720;7.296;2023-05-16T10:59:46;98283.28;;;12.58;88.32
4398;BME280;2213;49.720;7.296;2023-05-16T11:02:25;98287.59;;;12.73;90.88
4398;BME280;2213;49.720;7.296;2023-05-16T11:04:57;98285.41;;;12.76;87.73
4398;BME280;2213;49.720;7.296;2023-05-16T11:07:31;98287.47;;;12.87;86.76
4398;BME280;2213;49.720;7.296;2023-05-16T11:10:06;98288.50;;;12.93;86.31
4398;BME280;2213;49.720;7.296;2023-05-16T11:12:37;98284.06;;;13.00;86.02
4398;BME280;2213;49.720;7.296;2023-05-16T11:15:23;98303.47;;;13.05;86.37
4398;BME280;2213;49.720;7.296;2023-05-16T11:18:05;98305.91;;;13.00;86.21
4398;BME280;2213;49.720;7.296;2023-05-16T11:20:37;98292.97;;;13.05;85.93
4398;BME280;2213;49.720;7.296;2023-05-16T11:23:25;98299.31;;;13.11;84.43
4398;BME280;2213;49.720;7.296;2023-05-16T11:25:56;98305.16;;;13.13;81.18
4398;BME280;2213;49.720;7.296;2023-05-16T11:28:27;98298.28;;;13.12;79.99
4398;BME280;2213;49.720;7.296;2023-05-16T11:30:57;98287.78;;;13.12;78.53
4398;BME280;2213;49.720;7.296;2023-05-16T11:33:30;98308.84;;;13.19;78.21
4398;BME280;2213;49.720;7.296;2023-05-16T11:36:04;98297.50;;;13.18;75.27
4398;BME280;2213;49.720;7.296;2023-05-16T11:38:42;98281.75;;;13.18;73.46
4398;BME280;2213;49.720;7.296;2023-05-16T11:41:11;98282.16;;;13.15;71.92
4398;BME280;2213;49.720;7.296;2023-05-16T11:43:44;98270.03;;;13.21;72.81
4398;BME280;2213;49.720;7.296;2023-05-16T11:46:13;98276.53;;;13.31;76.22
4398;BME280;2213;49.720;7.296;2023-05-16T11:48:46;98278.59;;;13.42;79.17
4398;BME280;2213;49.720;7.296;2023-05-16T11:51:17;98293.53;;;13.42;74.37
4398;BME280;2213;49.720;7.296;2023-05-16T11:53:48;98290.31;;;13.46;73.08
4398;BME280;2213;49.720;7.296;2023-05-16T11:56:19;98291.13;;;13.53;75.95
4398;BME280;2213;49.720;7.296;2023-05-16T11:58:48;98299.44;;;13.57;72.40
4398;BME280;2213;49.720;7.296;2023-05-16T12:01:18;98302.84;;;13.57;72.72
4398;BME280;2213;49.720;7.296;2023-05-16T12:03:55;98287.09;;;13.57;69.79
4398;BME280;2213;49.720;7.296;2023-05-16T12:06:25;98300.03;;;13.66;70.50
4398;BME280;2213;49.720;7.296;2023-05-16T12:08:55;98308.56;;;13.74;70.37
4398;BME280;2213;49.720;7.296;2023-05-16T12:11:24;98306.72;;;13.75;67.69
4398;BME280;2213;49.720;7.296;2023-05-16T12:13:53;98303.09;;;13.82;69.24
4398;BME280;2213;49.720;7.296;2023-05-16T12:16:23;98295.19;;;13.89;67.08
4398;BME280;2213;49.720;7.296;2023-05-16T12:18:53;98304.53;;;14.11;69.21
4398;BME280;2213;49.720;7.296;2023-05-16T12:21:24;98305.09;;;14.13;64.86
4398;BME280;2213;49.720;7.296;2023-05-16T12:23:54;98289.56;;;14.11;63.06
4398;BME280;2213;49.720;7.296;2023-05-16T12:26:25;98301.06;;;14.17;63.59
4398;BME280;2213;49.720;7.296;2023-05-16T12:28:57;98296.44;;;14.19;63.45
4398;BME280;2213;49.720;7.296;2023-05-16T12:31:27;98308.97;;;14.17;63.72
4398;BME280;2213;49.720;7.296;2023-05-16T12:34:00;98291.56;;;14.23;63.65
4398;BME280;2213;49.720;7.296;2023-05-16T12:36:32;98306.13;;;14.25;64.17
4398;BME280;2213;49.720;7.296;2023-05-16T12:39:03;98315.84;;;14.31;63.15
4398;BME280;2213;49.720;7.296;2023-05-16T12:41:32;98311.00;;;14.41;63.50
4398;BME280;2213;49.720;7.296;2023-05-16T12:44:11;98312.41;;;14.50;64.41
4398;BME280;2213;49.720;7.296;2023-05-16T12:46:44;98314.66;;;14.47;63.71
4398;BME280;2213;49.720;7.296;2023-05-16T12:49:14;98309.56;;;14.52;64.36
4398;BME280;2213;49.720;7.296;2023-05-16T12:51:49;98319.91;;;14.47;63.17
4398;BME280;2213;49.720;7.296;2023-05-16T12:54:18;98312.00;;;14.53;63.16
4398;BME280;2213;49.720;7.296;2023-05-16T12:56:49;98317.03;;;14.55;62.01
4398;BME280;2213;49.720;7.296;2023-05-16T12:59:17;98320.47;;;14.62;62.63
4398;BME280;2213;49.720;7.296;2023-05-16T13:01:47;98332.44;;;14.65;60.89
4398;BME280;2213;49.720;7.296;2023-05-16T13:04:18;98338.69;;;14.64;62.33
4398;BME280;2213;49.720;7.296;2023-05-16T13:06:47;98328.75;;;14.66;62.85
4398;BME280;2213;49.720;7.296;2023-05-16T13:09:20;98331.00;;;14.62;59.78
4398;BME280;2213;49.720;7.296;2023-05-16T13:11:49;98313.75;;;14.73;59.54
4398;BME280;2213;49.720;7.296;2023-05-16T13:14:18;98321.06;;;14.77;60.13
4398;BME280;2213;49.720;7.296;2023-05-16T13:16:47;98345.16;;;14.74;59.52
4398;BME280;2213;49.720;7.296;2023-05-16T13:19:18;98337.25;;;14.81;60.27
4398;BME280;2213;49.720;7.296;2023-05-16T13:21:49;98334.00;;;14.85;60.91
4398;BME280;2213;49.720;7.296;2023-05-16T13:24:18;98345.16;;;14.81;60.10
4398;BME280;2213;49.720;7.296;2023-05-16T13:26:46;98347.56;;;14.89;59.54
4398;BME280;2213;49.720;7.296;2023-05-16T13:29:15;98356.28;;;14.83;60.05